sensor_id;sensor_type;location;lat;lon;timestamp;pressure;altitude;pressure_sealevel;temperature;humidity
6144;BME280;3103;49.492;8.474;2023-02-26T00:01:29;100225.53;;;3.18;49.14
6144;BME280;3103;49.492;8.474;2023-02-26T00:04:00;100218.19;;;3.20;48.94
6144;BME280;3103;49.492;8.474;2023-02-26T00:06:28;100219.81;;;3.21;49.23
6144;BME280;3103;49.492;8.474;2023-02-26T00:08:56;100221.84;;;3.19;49.40
6144;BME280;3103;49.492;8.474;2023-02-26T00:11:24;100224.03;;;3.09;50.12
6144;BME280;3103;49.492;8.474;2023-02-26T00:13:51;100219.19;;;3.12;49.80
6144;BME280;3103;49.492;8.474;2023-02-26T00:16:33;100224.84;;;3.03;49.46
6144;BME280;3103;49.492;8.474;2023-02-26T00:19:03;100226.47;;;3.04;50.26
6144;BME280;3103;49.492;8.474;2023-02-26T00:21:31;100221.31;;;2.95;50.27
6144;BME280;3103;49.492;8.474;2023-02-26T00:23:59;100225.38;;;2.91;49.63
6144;BME280;3103;49.492;8.474;2023-02-26T00:26:29;100223.72;;;2.84;50.22
6144;BME280;3103;49.492;8.474;2023-02-26T00:28:57;100226.38;;;2.90;51.90
6144;BME280;3103;49.492;8.474;2023-02-26T00:31:24;100227.00;;;2.92;50.17
6144;BME280;3103;49.492;8.474;2023-02-26T00:33:52;100228.66;;;2.93;50.12
6144;BME280;3103;49.492;8.474;2023-02-26T00:41:33;100231.22;;;2.80;49.83
6144;BME280;3103;49.492;8.474;2023-02-26T00:44:02;100237.00;;;2.90;50.18
6144;BME280;3103;49.492;8.474;2023-02-26T00:51:48;100241.91;;;2.93;49.94
6144;BME280;3103;49.492;8.474;2023-02-26T00:54:21;100243.13;;;2.91;49.47
6144;BME280;3103;49.492;8.474;2023-02-26T00:56:51;100235.50;;;2.81;49.96
6144;BME280;3103;49.492;8.474;2023-02-26T00:59:20;100241.50;;;2.62;50.00
6144;BME280;3103;49.492;8.474;2023-02-26T01:01:48;100232.13;;;2.66;50.29
6144;BME280;3103;49.492;8.474;2023-02-26T01:04:17;100235.03;;;2.71;50.64
6144;BME280;3103;49.492;8.474;2023-02-26T01:06:46;100229.31;;;2.67;49.87
6144;BME280;3103;49.492;8.474;2023-02-26T01:09:24;100233.72;;;2.60;50.55
6144;BME280;3103;49.492;8.474;2023-02-26T01:11:53;100236.91;;;2.49;50.89
6144;BME280;3103;49.492;8.474;2023-02-26T01:14:21;100234.97;;;2.64;51.96
6144;BME280;3103;49.492;8.474;2023-02-26T01:17:01;100246.41;;;2.65;51.03
6144;BME280;3103;49.492;8.474;2023-02-26T01:19:52;100238.59;;;2.57;50.45
6144;BME280;3103;49.492;8.474;2023-02-26T01:22:22;100238.91;;;2.68;52.00
6144;BME280;3103;49.492;8.474;2023-02-26T01:24:58;100243.28;;;2.55;51.15
6144;BME280;3103;49.492;8.474;2023-02-26T01:27:25;100238.59;;;2.57;50.72
6144;BME280;3103;49.492;8.474;2023-02-26T01:29:53;100241.38;;;2.49;50.57
6144;BME280;3103;49.492;8.474;2023-02-26T01:32:54;100239.97;;;2.53;50.52
6144;BME280;3103;49.492;8.474;2023-02-26T01:35:31;100245.91;;;2.27;51.53
6144;BME280;3103;49.492;8.474;2023-02-26T01:38:09;100241.19;;;2.50;51.17
6144;BME280;3103;49.492;8.474;2023-02-26T01:43:23;100241.81;;;2.52;51.07
6144;BME280;3103;49.492;8.474;2023-02-26T01:45:59;100244.09;;;2.55;50.58
6144;BME280;3103;49.492;8.474;2023-02-26T01:48:37;100240.63;;;2.55;51.00
6144;BME280;3103;49.492;8.474;2023-02-26T01:51:04;100245.56;;;2.58;51.41
6144;BME280;3103;49.492;8.474;2023-02-26T01:53:31;100242.63;;;2.53;51.09
6144;BME280;3103;49.492;8.474;2023-02-26T01:56:02;100236.72;;;2.51;51.50
6144;BME280;3103;49.492;8.474;2023-02-26T01:58:33;100233.81;;;2.46;51.76
6144;BME280;3103;49.492;8.474;2023-02-26T02:01:02;100241.00;;;2.52;52.07
6144;BME280;3103;49.492;8.474;2023-02-26T02:03:31;100237.72;;;2.50;52.35
6144;BME280;3103;49.492;8.474;2023-02-26T02:06:03;100237.34;;;2.53;52.36
6144;BME280;3103;49.492;8.474;2023-02-26T02:08:33;100240.56;;;2.48;52.49
6144;BME280;3103;49.492;8.474;2023-02-26T02:11:03;100243.31;;;2.61;51.97
6144;BME280;3103;49.492;8.474;2023-02-26T02:19:23;100250.31;;;2.41;52.28
6144;BME280;3103;49.492;8.474;2023-02-26T02:22:18;100257.09;;;2.50;52.60
6144;BME280;3103;49.492;8.474;2023-02-26T02:24:57;100254.03;;;2.47;52.65
6144;BME280;3103;49.492;8.474;2023-02-26T02:32:50;100255.94;;;2.31;53.19
6144;BME280;3103;49.492;8.474;2023-02-26T02:35:25;100259.00;;;2.35;53.24
6144;BME280;3103;49.492;8.474;2023-02-26T02:38:04;100258.47;;;2.40;53.34
6144;BME280;3103;49.492;8.474;2023-02-26T02:40:38;100260.25;;;2.39;52.89
6144;BME280;3103;49.492;8.474;2023-02-26T02:43:14;100263.81;;;2.46;53.42
6144;BME280;3103;49.492;8.474;2023-02-26T02:45:46;100260.22;;;2.32;54.95
6144;BME280;3103;49.492;8.474;2023-02-26T02:48:35;100257.38;;;2.34;54.16
6144;BME280;3103;49.492;8.474;2023-02-26T02:51:13;100264.31;;;2.35;54.63
6144;BME280;3103;49.492;8.474;2023-02-26T02:53:49;100265.72;;;2.31;55.08
6144;BME280;3103;49.492;8.474;2023-02-26T02:56:38;100259.97;;;2.27;55.04
6144;BME280;3103;49.492;8.474;2023-02-26T02:59:38;100263.84;;;2.10;55.81
6144;BME280;3103;49.492;8.474;2023-02-26T03:02:22;100262.00;;;2.25;55.39
6144;BME280;3103;49.492;8.474;2023-02-26T03:04:51;100265.63;;;2.24;56.21
6144;BME280;3103;49.492;8.474;2023-02-26T03:07:18;100271.31;;;2.21;55.64
6144;BME280;3103;49.492;8.474;2023-02-26T03:09:50;100266.00;;;2.21;57.33
6144;BME280;3103;49.492;8.474;2023-02-26T03:12:17;100273.22;;;2.27;56.54
6144;BME280;3103;49.492;8.474;2023-02-26T03:14:44;100272.09;;;2.15;56.67
6144;BME280;3103;49.492;8.474;2023-02-26T03:20:21;100279.22;;;2.15;57.93
6144;BME280;3103;49.492;8.474;2023-02-26T03:23:02;100284.72;;;2.13;57.67
6144;BME280;3103;49.492;8.474;2023-02-26T03:25:43;100291.19;;;2.11;57.30
6144;BME280;3103;49.492;8.474;2023-02-26T03:28:51;100286.91;;;2.09;56.51
6144;BME280;3103;49.492;8.474;2023-02-26T03:31:32;100296.25;;;2.05;56.60
6144;BME280;3103;49.492;8.474;2023-02-26T03:34:23;100300.81;;;1.97;57.11
6144;BME280;3103;49.492;8.474;2023-02-26T03:36:56;100304.03;;;1.92;57.68
6144;BME280;3103;49.492;8.474;2023-02-26T03:39:32;100307.47;;;2.07;57.63
6144;BME280;3103;49.492;8.474;2023-02-26T03:42:03;100309.19;;;2.15;57.33
6144;BME280;3103;49.492;8.474;2023-02-26T03:44:44;100311.41;;;1.97;57.60
6144;BME280;3103;49.492;8.474;2023-02-26T03:47:14;100318.00;;;2.01;57.28
6144;BME280;3103;49.492;8.474;2023-02-26T03:49:59;100316.00;;;2.03;57.36
6144;BME280;3103;49.492;8.474;2023-02-26T03:52:34;100323.03;;;1.96;57.68
6144;BME280;3103;49.492;8.474;2023-02-26T03:55:40;100314.09;;;1.82;57.67
6144;BME280;3103;49.492;8.474;2023-02-26T03:58:26;100326.81;;;1.87;57.24
6144;BME280;3103;49.492;8.474;2023-02-26T04:01:31;100311.53;;;1.89;57.40
6144;BME280;3103;49.492;8.474;2023-02-26T04:04:10;100323.41;;;1.93;57.85
6144;BME280;3103;49.492;8.474;2023-02-26T04:06:38;100322.78;;;1.76;58.35
6144;BME280;3103;49.492;8.474;2023-02-26T04:09:06;100329.16;;;1.82;58.34
6144;BME280;3103;49.492;8.474;2023-02-26T04:11:36;100328.34;;;1.81;58.01
6144;BME280;3103;49.492;8.474;2023-02-26T04:14:03;100333.75;;;1.88;58.56
6144;BME280;3103;49.492;8.474;2023-02-26T04:16:36;100340.88;;;1.87;59.37
6144;BME280;3103;49.492;8.474;2023-02-26T04:19:03;100342.72;;;1.72;59.13
6144;BME280;3103;49.492;8.474;2023-02-26T04:21:30;100345.72;;;1.69;59.22
6144;BME280;3103;49.492;8.474;2023-02-26T04:23:56;100354.31;;;1.71;59.54
6144;BME280;3103;49.492;8.474;2023-02-26T04:26:23;100355.97;;;1.72;59.71
6144;BME280;3103;49.492;8.474;2023-02-26T04:28:50;100349.75;;;1.65;60.25
6144;BME280;3103;49.492;8.474;2023-02-26T04:31:18;100354.22;;;1.64;60.05
6144;BME280;3103;49.492;8.474;2023-02-26T04:33:46;100354.66;;;1.68;60.30
6144;BME280;3103;49.492;8.474;2023-02-26T04:36:13;100355.50;;;1.68;60.10
6144;BME280;3103;49.492;8.474;2023-02-26T04:38:40;100352.50;;;1.71;59.96
6144;BME280;3103;49.492;8.474;2023-02-26T04:41:07;100361.28;;;1.57;59.50
6144;BME280;3103;49.492;8.474;2023-02-26T04:43:34;100369.03;;;1.59;60.65
6144;BME280;3103;49.492;8.474;2023-02-26T04:46:14;100372.19;;;1.54;60.57
6144;BME280;3103;49.492;8.474;2023-02-26T04:48:41;100368.91;;;1.52;61.12
6144;BME280;3103;49.492;8.474;2023-02-26T04:51:08;100386.38;;;1.46;60.36
6144;BME280;3103;49.492;8.474;2023-02-26T04:53:35;100383.16;;;1.51;60.65
6144;BME280;3103;49.492;8.474;2023-02-26T04:56:05;100377.41;;;1.47;60.33
6144;BME280;3103;49.492;8.474;2023-02-26T04:58:35;100382.91;;;1.46;60.65
6144;BME280;3103;49.492;8.474;2023-02-26T05:01:07;100385.00;;;1.51;61.37
6144;BME280;3103;49.492;8.474;2023-02-26T05:03:35;100386.56;;;1.45;60.82
6144;BME280;3103;49.492;8.474;2023-02-26T05:06:02;100382.16;;;1.37;60.29
6144;BME280;3103;49.492;8.474;2023-02-26T05:08:31;100390.56;;;1.41;60.48
6144;BME280;3103;49.492;8.474;2023-02-26T05:10:58;100390.06;;;1.23;60.88
6144;BME280;3103;49.492;8.474;2023-02-26T05:13:26;100392.84;;;1.29;60.87
6144;BME280;3103;49.492;8.474;2023-02-26T05:15:55;100400.78;;;1.44;60.82
6144;BME280;3103;49.492;8.474;2023-02-26T05:18:22;100407.72;;;1.45;61.21
6144;BME280;3103;49.492;8.474;2023-02-26T05:20:53;100408.09;;;1.42;60.40
6144;BME280;3103;49.492;8.474;2023-02-26T05:23:21;100417.19;;;1.39;61.40
6144;BME280;3103;49.492;8.474;2023-02-26T05:25:48;100404.16;;;1.38;62.21
6144;BME280;3103;49.492;8.474;2023-02-26T05:28:15;100403.94;;;1.25;61.39
6144;BME280;3103;49.492;8.474;2023-02-26T05:30:43;100414.47;;;1.33;61.83
6144;BME280;3103;49.492;8.474;2023-02-26T05:33:10;100417.56;;;1.36;61.84
6144;BME280;3103;49.492;8.474;2023-02-26T05:35:36;100415.03;;;1.43;62.16
6144;BME280;3103;49.492;8.474;2023-02-26T05:38:03;100422.41;;;1.33;62.05
6144;BME280;3103;49.492;8.474;2023-02-26T05:40:30;100419.47;;;1.28;61.74
6144;BME280;3103;49.492;8.474;2023-02-26T05:42:57;100426.19;;;1.15;62.07
6144;BME280;3103;49.492;8.474;2023-02-26T05:45:23;100428.94;;;1.22;62.27
6144;BME280;3103;49.492;8.474;2023-02-26T05:47:50;100436.34;;;1.27;62.19
6144;BME280;3103;49.492;8.474;2023-02-26T05:50:17;100444.81;;;1.22;62.16
6144;BME280;3103;49.492;8.474;2023-02-26T05:52:44;100439.44;;;1.15;62.59
6144;BME280;3103;49.492;8.474;2023-02-26T05:55:10;100436.28;;;1.12;62.96
6144;BME280;3103;49.492;8.474;2023-02-26T05:57:37;100444.28;;;1.27;62.75
6144;BME280;3103;49.492;8.474;2023-02-26T06:00:06;100449.47;;;1.20;62.81
6144;BME280;3103;49.492;8.474;2023-02-26T06:02:39;100453.66;;;1.14;62.58
6144;BME280;3103;49.492;8.474;2023-02-26T06:05:08;100457.09;;;1.00;62.89
6144;BME280;3103;49.492;8.474;2023-02-26T06:07:34;100455.72;;;1.04;63.32
6144;BME280;3103;49.492;8.474;2023-02-26T06:10:01;100468.06;;;1.12;63.14
6144;BME280;3103;49.492;8.474;2023-02-26T06:12:29;100467.72;;;1.15;62.76
6144;BME280;3103;49.492;8.474;2023-02-26T06:14:55;100468.81;;;1.21;62.86
6144;BME280;3103;49.492;8.474;2023-02-26T06:17:22;100473.94;;;1.22;63.08
6144;BME280;3103;49.492;8.474;2023-02-26T06:19:49;100484.25;;;1.17;62.84
6144;BME280;3103;49.492;8.474;2023-02-26T06:22:15;100485.06;;;1.17;63.16
6144;BME280;3103;49.492;8.474;2023-02-26T06:24:42;100491.75;;;1.05;63.19
6144;BME280;3103;49.492;8.474;2023-02-26T06:27:09;100487.53;;;1.19;62.72
6144;BME280;3103;49.492;8.474;2023-02-26T06:29:36;100497.34;;;1.10;63.36
6144;BME280;3103;49.492;8.474;2023-02-26T06:32:03;100505.06;;;1.20;63.44
6144;BME280;3103;49.492;8.474;2023-02-26T06:34:31;100502.72;;;1.02;63.72
6144;BME280;3103;49.492;8.474;2023-02-26T06:36:58;100518.34;;;1.12;63.45
6144;BME280;3103;49.492;8.474;2023-02-26T06:39:25;100516.19;;;1.15;63.09
6144;BME280;3103;49.492;8.474;2023-02-26T06:41:51;100521.41;;;1.24;63.19
6144;BME280;3103;49.492;8.474;2023-02-26T06:44:18;100536.19;;;1.18;63.72
6144;BME280;3103;49.492;8.474;2023-02-26T06:46:45;100533.63;;;1.25;63.63
6144;BME280;3103;49.492;8.474;2023-02-26T06:49:11;100541.75;;;1.23;63.45
6144;BME280;3103;49.492;8.474;2023-02-26T06:51:38;100549.50;;;1.25;63.69
6144;BME280;3103;49.492;8.474;2023-02-26T06:54:05;100554.81;;;1.25;63.95
6144;BME280;3103;49.492;8.474;2023-02-26T06:56:32;100568.81;;;1.33;64.46
6144;BME280;3103;49.492;8.474;2023-02-26T06:58:58;100564.28;;;1.19;64.53
6144;BME280;3103;49.492;8.474;2023-02-26T07:01:25;100559.06;;;1.34;65.57
6144;BME280;3103;49.492;8.474;2023-02-26T07:03:52;100569.47;;;1.35;63.66
6144;BME280;3103;49.492;8.474;2023-02-26T07:06:19;100566.41;;;1.46;63.60
6144;BME280;3103;49.492;8.474;2023-02-26T07:08:54;100576.72;;;1.41;63.54
6144;BME280;3103;49.492;8.474;2023-02-26T07:11:21;100580.13;;;1.27;63.79
6144;BME280;3103;49.492;8.474;2023-02-26T07:13:48;100581.06;;;1.34;63.87
6144;BME280;3103;49.492;8.474;2023-02-26T07:16:17;100587.41;;;1.25;64.95
6144;BME280;3103;49.492;8.474;2023-02-26T07:18:44;100594.28;;;1.34;64.90
6144;BME280;3103;49.492;8.474;2023-02-26T07:21:11;100594.59;;;1.39;64.21
6144;BME280;3103;49.492;8.474;2023-02-26T07:23:38;100600.88;;;1.15;64.70
6144;BME280;3103;49.492;8.474;2023-02-26T07:26:05;100592.25;;;1.44;64.24
6144;BME280;3103;49.492;8.474;2023-02-26T07:28:31;100600.34;;;1.89;62.66
6144;BME280;3103;49.492;8.474;2023-02-26T07:30:59;100591.03;;;1.93;62.31
6144;BME280;3103;49.492;8.474;2023-02-26T07:33:25;100599.97;;;2.29;61.14
6144;BME280;3103;49.492;8.474;2023-02-26T07:35:53;100598.97;;;2.30;60.88
6144;BME280;3103;49.492;8.474;2023-02-26T07:38:20;100595.63;;;1.99;61.60
6144;BME280;3103;49.492;8.474;2023-02-26T07:40:47;100603.28;;;1.94;61.85
6144;BME280;3103;49.492;8.474;2023-02-26T07:43:14;100608.38;;;1.95;62.39
6144;BME280;3103;49.492;8.474;2023-02-26T07:45:41;100615.38;;;1.73;62.75
6144;BME280;3103;49.492;8.474;2023-02-26T07:48:07;100614.13;;;1.61;63.08
6144;BME280;3103;49.492;8.474;2023-02-26T07:50:34;100616.75;;;1.69;63.02
6144;BME280;3103;49.492;8.474;2023-02-26T07:53:01;100619.50;;;1.76;64.53
6144;BME280;3103;49.492;8.474;2023-02-26T07:55:28;100630.63;;;1.71;63.46
6144;BME280;3103;49.492;8.474;2023-02-26T07:57:55;100621.69;;;1.72;62.80
6144;BME280;3103;49.492;8.474;2023-02-26T08:00:22;100625.88;;;1.82;63.53
6144;BME280;3103;49.492;8.474;2023-02-26T08:02:49;100629.50;;;1.89;62.28
6144;BME280;3103;49.492;8.474;2023-02-26T08:05:16;100636.03;;;2.01;63.19
6144;BME280;3103;49.492;8.474;2023-02-26T08:07:43;100640.00;;;1.97;62.08
6144;BME280;3103;49.492;8.474;2023-02-26T08:10:10;100640.38;;;1.94;62.21
6144;BME280;3103;49.492;8.474;2023-02-26T08:12:37;100635.66;;;2.04;61.69
6144;BME280;3103;49.492;8.474;2023-02-26T08:15:05;100633.38;;;2.01;61.63
6144;BME280;3103;49.492;8.474;2023-02-26T08:17:32;100630.78;;;1.93;61.98
6144;BME280;3103;49.492;8.474;2023-02-26T08:19:59;100632.38;;;2.02;61.82
6144;BME280;3103;49.492;8.474;2023-02-26T08:22:26;100642.81;;;2.18;61.02
6144;BME280;3103;49.492;8.474;2023-02-26T08:24:53;100643.66;;;2.33;60.95
6144;BME280;3103;49.492;8.474;2023-02-26T08:27:21;100642.28;;;2.37;60.10
6144;BME280;3103;49.492;8.474;2023-02-26T08:29:48;100647.72;;;2.44;60.08
6144;BME280;3103;49.492;8.474;2023-02-26T08:32:16;100652.41;;;2.72;62.24
6144;BME280;3103;49.492;8.474;2023-02-26T08:34:45;100653.09;;;2.36;62.04
6144;BME280;3103;49.492;8.474;2023-02-26T08:37:13;100658.78;;;2.77;62.59
6144;BME280;3103;49.492;8.474;2023-02-26T08:39:40;100648.63;;;2.95;60.07
6144;BME280;3103;49.492;8.474;2023-02-26T08:42:08;100658.25;;;3.11;58.96
6144;BME280;3103;49.492;8.474;2023-02-26T08:44:35;100661.03;;;3.39;59.66
6144;BME280;3103;49.492;8.474;2023-02-26T08:47:02;100664.84;;;4.15;57.35
6144;BME280;3103;49.492;8.474;2023-02-26T08:49:29;100661.59;;;4.76;54.74
6144;BME280;3103;49.492;8.474;2023-02-26T08:51:56;100677.28;;;4.64;53.16
6144;BME280;3103;49.492;8.474;2023-02-26T08:54:23;100680.91;;;4.57;53.35
6144;BME280;3103;49.492;8.474;2023-02-26T08:56:51;100673.34;;;4.88;53.96
6144;BME280;3103;49.492;8.474;2023-02-26T08:59:19;100680.63;;;4.45;53.62
6144;BME280;3103;49.492;8.474;2023-02-26T09:01:46;100684.25;;;4.37;53.33
6144;BME280;3103;49.492;8.474;2023-02-26T09:04:13;100681.84;;;4.21;53.90
6144;BME280;3103;49.492;8.474;2023-02-26T09:06:40;100699.47;;;4.50;54.21
6144;BME280;3103;49.492;8.474;2023-02-26T09:09:06;100693.34;;;4.50;54.40
6144;BME280;3103;49.492;8.474;2023-02-26T09:11:33;100700.16;;;4.59;52.78
6144;BME280;3103;49.492;8.474;2023-02-26T09:14:03;100700.66;;;4.69;52.06
6144;BME280;3103;49.492;8.474;2023-02-26T09:16:30;100698.44;;;4.72;50.89
6144;BME280;3103;49.492;8.474;2023-02-26T09:18:57;100708.75;;;4.82;50.51
6144;BME280;3103;49.492;8.474;2023-02-26T09:21:24;100710.16;;;5.19;50.81
6144;BME280;3103;49.492;8.474;2023-02-26T09:23:51;100707.19;;;5.01;51.27
6144;BME280;3103;49.492;8.474;2023-02-26T09:26:17;100704.78;;;4.71;53.00
6144;BME280;3103;49.492;8.474;2023-02-26T09:28:44;100712.75;;;4.43;52.28
6144;BME280;3103;49.492;8.474;2023-02-26T09:31:11;100701.94;;;4.24;53.96
6144;BME280;3103;49.492;8.474;2023-02-26T09:33:38;100717.72;;;4.25;54.03
6144;BME280;3103;49.492;8.474;2023-02-26T09:36:05;100709.84;;;5.35;47.71
6144;BME280;3103;49.492;8.474;2023-02-26T09:38:32;100710.91;;;4.72;48.40
6144;BME280;3103;49.492;8.474;2023-02-26T09:41:05;100713.81;;;4.49;48.60
6144;BME280;3103;49.492;8.474;2023-02-26T09:46:32;100717.19;;;3.72;50.92
6144;BME280;3103;49.492;8.474;2023-02-26T09:49:15;100719.47;;;3.75;51.56
6144;BME280;3103;49.492;8.474;2023-02-26T09:51:47;100724.00;;;3.60;51.45
6144;BME280;3103;49.492;8.474;2023-02-26T09:54:21;100720.75;;;3.65;52.12
6144;BME280;3103;49.492;8.474;2023-02-26T09:56:52;100725.91;;;3.51;52.05
6144;BME280;3103;49.492;8.474;2023-02-26T09:59:19;100714.03;;;3.47;52.92
6144;BME280;3103;49.492;8.474;2023-02-26T10:02:15;100710.06;;;3.58;55.38
6144;BME280;3103;49.492;8.474;2023-02-26T10:04:55;100717.75;;;3.68;56.68
6144;BME280;3103;49.492;8.474;2023-02-26T10:10:53;100719.63;;;4.59;53.80
6144;BME280;3103;49.492;8.474;2023-02-26T10:15:51;100724.44;;;5.05;51.88
6144;BME280;3103;49.492;8.474;2023-02-26T10:18:31;100729.34;;;5.43;50.18
6144;BME280;3103;49.492;8.474;2023-02-26T10:21:06;100728.25;;;5.30;49.83
6144;BME280;3103;49.492;8.474;2023-02-26T10:23:41;100730.13;;;4.95;51.08
6144;BME280;3103;49.492;8.474;2023-02-26T10:26:13;100742.16;;;4.63;50.73
6144;BME280;3103;49.492;8.474;2023-02-26T10:31:25;100734.06;;;4.50;47.68
6144;BME280;3103;49.492;8.474;2023-02-26T10:34:07;100740.69;;;4.54;46.90
6144;BME280;3103;49.492;8.474;2023-02-26T10:36:46;100749.91;;;4.58;47.22
6144;BME280;3103;49.492;8.474;2023-02-26T10:39:25;100734.97;;;4.57;46.75
6144;BME280;3103;49.492;8.474;2023-02-26T10:41:59;100745.13;;;4.75;46.75
6144;BME280;3103;49.492;8.474;2023-02-26T10:44:36;100743.88;;;4.71;46.67
6144;BME280;3103;49.492;8.474;2023-02-26T10:47:36;100763.53;;;4.70;45.99
6144;BME280;3103;49.492;8.474;2023-02-26T10:50:09;100759.78;;;4.36;46.45
6144;BME280;3103;49.492;8.474;2023-02-26T10:52:37;100765.38;;;4.05;47.21
6144;BME280;3103;49.492;8.474;2023-02-26T10:55:06;100747.88;;;3.75;47.82
6144;BME280;3103;49.492;8.474;2023-02-26T10:57:43;100752.44;;;3.81;48.43
6144;BME280;3103;49.492;8.474;2023-02-26T11:00:19;100751.59;;;4.16;48.20
6144;BME280;3103;49.492;8.474;2023-02-26T11:02:49;100749.31;;;4.13;47.57
6144;BME280;3103;49.492;8.474;2023-02-26T11:05:21;100759.50;;;4.10;48.61
6144;BME280;3103;49.492;8.474;2023-02-26T11:07:53;100757.03;;;4.51;47.43
6144;BME280;3103;49.492;8.474;2023-02-26T11:10:27;100760.66;;;4.71;45.69
6144;BME280;3103;49.492;8.474;2023-02-26T11:12:57;100761.84;;;5.25;45.68
6144;BME280;3103;49.492;8.474;2023-02-26T11:15:25;100760.47;;;5.35;45.54
6144;BME280;3103;49.492;8.474;2023-02-26T11:17:55;100763.81;;;4.82;46.10
6144;BME280;3103;49.492;8.474;2023-02-26T11:20:41;100764.28;;;4.92;46.33
6144;BME280;3103;49.492;8.474;2023-02-26T11:23:13;100772.38;;;5.40;46.58
6144;BME280;3103;49.492;8.474;2023-02-26T11:25:43;100760.94;;;5.11;44.96
6144;BME280;3103;49.492;8.474;2023-02-26T11:28:22;100772.94;;;5.28;46.58
6144;BME280;3103;49.492;8.474;2023-02-26T11:30:50;100765.88;;;5.14;46.67
6144;BME280;3103;49.492;8.474;2023-02-26T11:33:33;100770.59;;;4.84;46.27
6144;BME280;3103;49.492;8.474;2023-02-26T11:36:07;100765.53;;;5.24;46.51
6144;BME280;3103;49.492;8.474;2023-02-26T11:38:35;100757.56;;;5.30;45.92
6144;BME280;3103;49.492;8.474;2023-02-26T11:41:03;100773.34;;;5.32;46.03
6144;BME280;3103;49.492;8.474;2023-02-26T11:43:42;100779.75;;;5.38;46.72
6144;BME280;3103;49.492;8.474;2023-02-26T11:46:12;100780.44;;;5.18;46.24
6144;BME280;3103;49.492;8.474;2023-02-26T11:48:42;100772.00;;;5.08;46.50
6144;BME280;3103;49.492;8.474;2023-02-26T11:51:13;100776.63;;;5.27;45.95
6144;BME280;3103;49.492;8.474;2023-02-26T11:53:54;100775.28;;;5.10;46.68
6144;BME280;3103;49.492;8.474;2023-02-26T11:56:36;100775.13;;;5.18;46.56
6144;BME280;3103;49.492;8.474;2023-02-26T11:59:06;100771.69;;;5.24;47.15
6144;BME280;3103;49.492;8.474;2023-02-26T12:01:35;100777.56;;;5.13;46.52
6144;BME280;3103;49.492;8.474;2023-02-26T12:04:02;100782.97;;;4.98;46.96
6144;BME280;3103;49.492;8.474;2023-02-26T12:06:29;100778.00;;;4.89;46.87
6144;BME280;3103;49.492;8.474;2023-02-26T12:08:56;100777.75;;;4.84;49.81
6144;BME280;3103;49.492;8.474;2023-02-26T12:11:41;100770.81;;;4.89;49.39
6144;BME280;3103;49.492;8.474;2023-02-26T12:39:19;100775.13;;;5.53;50.51
6144;BME280;3103;49.492;8.474;2023-02-26T12:41:55;100774.34;;;5.24;47.36
6144;BME280;3103;49.492;8.474;2023-02-26T12:44:46;100776.47;;;5.35;48.94
6144;BME280;3103;49.492;8.474;2023-02-26T12:47:29;100774.03;;;5.41;48.62
6144;BME280;3103;49.492;8.474;2023-02-26T12:55:47;100777.88;;;5.79;45.54
6144;BME280;3103;49.492;8.474;2023-02-26T12:58:44;100767.53;;;5.50;41.95
6144;BME280;3103;49.492;8.474;2023-02-26T13:04:59;100763.91;;;5.29;42.46
6144;BME280;3103;49.492;8.474;2023-02-26T13:07:40;100767.59;;;5.28;43.16
6144;BME280;3103;49.492;8.474;2023-02-26T13:15:52;100765.97;;;5.27;43.59
6144;BME280;3103;49.492;8.474;2023-02-26T13:18:29;100764.31;;;5.26;45.09
6144;BME280;3103;49.492;8.474;2023-02-26T13:23:57;100767.53;;;5.15;44.57
6144;BME280;3103;49.492;8.474;2023-02-26T13:26:27;100776.94;;;5.18;44.64
6144;BME280;3103;49.492;8.474;2023-02-26T13:29:10;100771.59;;;5.11;44.48
6144;BME280;3103;49.492;8.474;2023-02-26T13:31:43;100771.88;;;5.23;44.83
6144;BME280;3103;49.492;8.474;2023-02-26T13:34:14;100780.78;;;5.36;44.54
6144;BME280;3103;49.492;8.474;2023-02-26T13:36:43;100782.78;;;5.34;44.42
6144;BME280;3103;49.492;8.474;2023-02-26T13:39:41;100782.28;;;5.18;43.81
6144;BME280;3103;49.492;8.474;2023-02-26T13:42:32;100783.00;;;5.05;44.27
6144;BME280;3103;49.492;8.474;2023-02-26T13:48:06;100784.94;;;5.18;43.89
6144;BME280;3103;49.492;8.474;2023-02-26T13:50:59;100789.22;;;5.12;42.99
6144;BME280;3103;49.492;8.474;2023-02-26T13:53:33;100793.94;;;5.10;42.99
6144;BME280;3103;49.492;8.474;2023-02-26T13:56:21;100793.66;;;5.05;42.56
6144;BME280;3103;49.492;8.474;2023-02-26T13:58:53;100796.34;;;5.05;42.68
6144;BME280;3103;49.492;8.474;2023-02-26T14:01:33;100795.09;;;5.01;42.72
6144;BME280;3103;49.492;8.474;2023-02-26T14:06:52;100804.81;;;4.87;43.32
6144;BME280;3103;49.492;8.474;2023-02-26T14:12:00;100812.09;;;5.00;43.59
6144;BME280;3103;49.492;8.474;2023-02-26T14:14:35;100814.84;;;5.13;42.93
6144;BME280;3103;49.492;8.474;2023-02-26T14:22:19;100820.84;;;5.22;41.58
6144;BME280;3103;49.492;8.474;2023-02-26T14:24:54;100817.47;;;5.41;41.53
6144;BME280;3103;49.492;8.474;2023-02-26T14:27:31;100829.97;;;5.41;41.62
6144;BME280;3103;49.492;8.474;2023-02-26T14:30:04;100827.91;;;5.36;41.05
6144;BME280;3103;49.492;8.474;2023-02-26T14:35:28;100833.78;;;5.25;41.63
6144;BME280;3103;49.492;8.474;2023-02-26T14:38:02;100831.06;;;5.18;41.55
6144;BME280;3103;49.492;8.474;2023-02-26T14:40:39;100833.34;;;5.21;41.43
6144;BME280;3103;49.492;8.474;2023-02-26T14:43:18;100840.06;;;5.17;41.80
6144;BME280;3103;49.492;8.474;2023-02-26T14:45:48;100838.47;;;5.23;42.24
6144;BME280;3103;49.492;8.474;2023-02-26T14:48:16;100841.50;;;5.48;43.68
6144;BME280;3103;49.492;8.474;2023-02-26T15:00:21;100841.78;;;5.25;41.85
6144;BME280;3103;49.492;8.474;2023-02-26T15:05:34;100841.59;;;5.05;41.66
6144;BME280;3103;49.492;8.474;2023-02-26T15:08:17;100853.75;;;5.07;42.02
6144;BME280;3103;49.492;8.474;2023-02-26T15:11:14;100843.53;;;5.11;42.45
6144;BME280;3103;49.492;8.474;2023-02-26T15:14:14;100857.66;;;5.12;41.98
6144;BME280;3103;49.492;8.474;2023-02-26T15:22:35;100853.09;;;5.05;40.79
6144;BME280;3103;49.492;8.474;2023-02-26T15:25:08;100852.72;;;5.09;41.14
6144;BME280;3103;49.492;8.474;2023-02-26T15:27:41;100864.47;;;4.93;41.60
6144;BME280;3103;49.492;8.474;2023-02-26T15:30:14;100865.38;;;5.06;41.54
6144;BME280;3103;49.492;8.474;2023-02-26T15:32:41;100869.47;;;5.02;40.43
6144;BME280;3103;49.492;8.474;2023-02-26T15:35:16;100869.47;;;5.02;40.67
6144;BME280;3103;49.492;8.474;2023-02-26T15:37:58;100869.84;;;4.99;39.52
6144;BME280;3103;49.492;8.474;2023-02-26T15:40:30;100874.63;;;4.83;39.99
6144;BME280;3103;49.492;8.474;2023-02-26T15:42:58;100874.22;;;4.64;40.43
6144;BME280;3103;49.492;8.474;2023-02-26T15:45:32;100871.50;;;4.58;41.17